createdAt,value
2019-02-26T00:01:23.431Z,10.53
2019-02-26T00:03:49.932Z,4.27
2019-02-26T00:06:18.388Z,6.37
2019-02-26T00:08:47.254Z,6.30
2019-02-26T00:11:13.741Z,6.23
2019-02-26T00:13:40.273Z,8.23
2019-02-26T00:16:07.953Z,9.20
2019-02-26T00:18:35.696Z,8.50
2019-02-26T00:21:03.303Z,5.83
2019-02-26T00:23:30.984Z,6.17
2019-02-26T00:25:57.709Z,7.13
2019-02-26T00:28:24.354Z,5.33
2019-02-26T00:30:51.213Z,6.20
2019-02-26T00:33:19.569Z,6.90
2019-02-26T00:35:48.063Z,6.27
2019-02-26T00:38:16.041Z,8.80
2019-02-26T00:40:43.841Z,4.37
2019-02-26T00:43:10.629Z,6.83
2019-02-26T00:45:39.064Z,4.30
2019-02-26T00:48:05.906Z,5.13
2019-02-26T00:50:34.836Z,5.60
2019-02-26T00:53:01.755Z,4.40
2019-02-26T00:55:32.175Z,8.17
2019-02-26T00:58:00.988Z,6.50
2019-02-26T01:00:28.518Z,6.80
2019-02-26T01:02:56.473Z,7.60
2019-02-26T01:05:23.224Z,6.23
2019-02-26T01:07:52.096Z,5.37
2019-02-26T01:10:19.332Z,9.63
2019-02-26T01:12:46.968Z,9.20
2019-02-26T01:15:14.120Z,6.57
2019-02-26T01:17:42.241Z,4.60
2019-02-26T01:20:11.274Z,4.80
2019-02-26T01:22:40.145Z,4.20
2019-02-26T01:25:06.861Z,6.77
2019-02-26T01:27:33.580Z,6.37
2019-02-26T01:30:00.415Z,8.93
2019-02-26T01:32:28.748Z,7.00
2019-02-26T01:34:55.594Z,3.43
2019-02-26T01:37:22.166Z,7.77
2019-02-26T01:39:50.166Z,5.53
2019-02-26T01:42:21.614Z,5.90
2019-02-26T01:44:46.114Z,8.63
2019-02-26T01:47:12.690Z,6.30
2019-02-26T01:49:39.759Z,6.07
2019-02-26T01:52:08.326Z,8.80
2019-02-26T01:54:37.358Z,5.03
2019-02-26T01:57:08.604Z,6.67
2019-02-26T01:59:34.500Z,3.70
2019-02-26T02:02:01.433Z,6.37
2019-02-26T02:04:28.104Z,7.27
2019-02-26T02:06:56.658Z,5.70
2019-02-26T02:09:25.082Z,4.97
2019-02-26T02:11:59.923Z,4.30
2019-02-26T02:14:26.388Z,4.77
2019-02-26T02:16:53.175Z,5.63
2019-02-26T02:19:22.271Z,8.43
2019-02-26T02:21:49.420Z,5.27
2019-02-26T02:24:18.092Z,6.43
2019-02-26T02:26:49.843Z,4.53
2019-02-26T02:29:16.553Z,3.37
2019-02-26T02:31:43.048Z,5.33
2019-02-26T02:34:09.734Z,5.77
2019-02-26T02:36:36.593Z,4.47
2019-02-26T02:39:10.462Z,4.57
2019-02-26T02:41:33.316Z,9.07
2019-02-26T02:43:59.886Z,7.13
2019-02-26T02:46:26.560Z,3.03
2019-02-26T02:48:53.263Z,7.67
2019-02-26T02:51:20.057Z,3.83
2019-02-26T02:53:47.824Z,5.70
2019-02-26T02:56:17.832Z,5.13
2019-02-26T02:58:46.186Z,4.57
2019-02-26T03:01:13.836Z,4.30
2019-02-26T03:03:41.261Z,6.00
2019-02-26T03:06:09.709Z,7.03
2019-02-26T03:08:36.553Z,4.73
2019-02-26T03:11:03.392Z,3.17
2019-02-26T03:13:30.092Z,3.53
2019-02-26T03:15:59.253Z,5.77
2019-02-26T03:18:25.511Z,5.90
2019-02-26T03:20:53.812Z,3.47
2019-02-26T03:23:20.965Z,5.33
2019-02-26T03:25:49.800Z,3.67
2019-02-26T03:28:16.503Z,3.20
2019-02-26T03:30:44.550Z,4.40
2019-02-26T03:33:11.405Z,4.80
2019-02-26T03:35:38.159Z,4.93
2019-02-26T03:38:04.831Z,3.47
2019-02-26T03:40:33.003Z,3.43
2019-02-26T03:43:01.476Z,2.83
2019-02-26T03:45:29.127Z,5.80
2019-02-26T03:47:58.066Z,5.47
2019-02-26T03:50:27.061Z,7.63
2019-02-26T03:52:52.886Z,8.17
2019-02-26T03:55:19.681Z,5.57
2019-02-26T03:57:47.418Z,5.00
2019-02-26T04:00:17.395Z,4.20
2019-02-26T04:02:47.737Z,4.00
2019-02-26T04:05:12.479Z,3.73
2019-02-26T04:07:39.237Z,5.57
2019-02-26T04:10:06.394Z,3.57
2019-02-26T04:12:36.323Z,4.27
2019-02-26T04:15:02.055Z,3.87
2019-02-26T04:17:30.787Z,5.63
2019-02-26T04:19:57.576Z,7.13
2019-02-26T04:22:31.768Z,7.90
2019-02-26T04:25:10.952Z,5.57
2019-02-26T04:27:56.360Z,8.17
2019-02-26T04:31:14.368Z,6.60
2019-02-26T04:34:30.297Z,4.43
2019-02-26T04:37:32.756Z,4.13
2019-02-26T04:40:19.363Z,5.13
2019-02-26T04:43:39.918Z,4.57
2019-02-26T04:46:31.650Z,4.43
2019-02-26T04:48:58.969Z,3.07
2019-02-26T04:51:25.999Z,3.77
2019-02-26T04:53:54.188Z,4.07
2019-02-26T04:56:21.275Z,4.23
2019-02-26T04:58:48.033Z,8.97
2019-02-26T05:01:16.401Z,4.97
2019-02-26T05:03:43.414Z,5.03
2019-02-26T05:06:10.802Z,7.23
2019-02-26T05:08:40.123Z,9.43
2019-02-26T05:11:06.750Z,4.13
2019-02-26T05:13:34.595Z,2.33
2019-02-26T05:16:01.630Z,3.83
2019-02-26T05:18:31.522Z,6.33
2019-02-26T05:20:59.187Z,3.80
2019-02-26T05:23:26.395Z,2.73
2019-02-26T05:25:59.728Z,4.33
2019-02-26T05:28:25.383Z,6.33
2019-02-26T05:30:52.105Z,6.93
2019-02-26T05:33:21.443Z,4.20
2019-02-26T05:35:49.002Z,3.23
2019-02-26T05:38:16.263Z,5.47
2019-02-26T05:40:45.104Z,7.53
2019-02-26T05:43:11.814Z,4.20
2019-02-26T05:45:38.635Z,7.20
2019-02-26T05:48:05.213Z,4.20
2019-02-26T05:50:34.731Z,6.07
2019-02-26T05:53:01.689Z,8.10
2019-02-26T05:55:29.252Z,5.73
2019-02-26T05:57:56.002Z,3.07
2019-02-26T06:00:28.349Z,4.93
2019-02-26T06:02:52.472Z,4.23
2019-02-26T06:05:20.544Z,3.73
2019-02-26T06:07:47.557Z,8.57
2019-02-26T06:10:14.209Z,10.50
2019-02-26T06:12:43.626Z,3.90
2019-02-26T06:15:09.423Z,5.57
2019-02-26T06:17:40.581Z,3.93
2019-02-26T06:20:16.668Z,4.53
2019-02-26T06:22:43.310Z,3.97
2019-02-26T06:25:14.950Z,4.63
2019-02-26T06:27:38.500Z,6.27
2019-02-26T06:30:09.265Z,6.63
2019-02-26T06:32:37.106Z,6.30
2019-02-26T06:35:06.683Z,5.37
2019-02-26T06:37:35.443Z,4.23
2019-02-26T06:40:03.291Z,6.10
2019-02-26T06:42:32.985Z,3.33
2019-02-26T06:44:59.298Z,6.77
2019-02-26T06:47:28.390Z,7.20
2019-02-26T06:49:54.951Z,5.50
2019-02-26T06:52:21.618Z,8.13
2019-02-26T06:54:54.812Z,7.67
2019-02-26T06:57:17.041Z,7.67
2019-02-26T06:59:43.680Z,7.47
2019-02-26T07:02:10.941Z,7.20
2019-02-26T07:04:38.342Z,5.90
2019-02-26T07:07:06.792Z,5.83
2019-02-26T07:09:34.593Z,5.77
2019-02-26T07:12:02.076Z,5.77
2019-02-26T07:14:30.258Z,4.27
2019-02-26T07:16:59.105Z,6.30
2019-02-26T07:19:26.133Z,4.90
2019-02-26T07:21:54.155Z,5.80
2019-02-26T07:24:22.922Z,4.43
2019-02-26T07:26:49.366Z,7.30
2019-02-26T07:29:17.509Z,5.37
2019-02-26T07:31:44.244Z,4.33
2019-02-26T07:34:10.818Z,8.13
2019-02-26T07:36:37.484Z,5.50
2019-02-26T07:39:06.571Z,4.50
2019-02-26T07:41:33.313Z,4.33
2019-02-26T07:44:00.104Z,4.57
2019-02-26T07:46:27.016Z,3.83
2019-02-26T07:48:56.483Z,6.13
2019-02-26T07:51:22.293Z,5.70
2019-02-26T07:53:51.232Z,3.73
2019-02-26T07:56:17.624Z,5.27
2019-02-26T07:58:44.169Z,3.60
2019-02-26T08:01:10.849Z,7.13
2019-02-26T08:03:37.539Z,4.90
2019-02-26T08:06:06.675Z,4.20
2019-02-26T08:08:32.869Z,6.73
2019-02-26T08:10:59.445Z,5.33
2019-02-26T08:13:28.889Z,4.57
2019-02-26T08:15:55.112Z,6.13
2019-02-26T08:18:23.192Z,5.57
2019-02-26T08:20:49.921Z,5.87
2019-02-26T08:23:17.188Z,5.90
2019-02-26T08:25:45.299Z,5.90
2019-02-26T08:28:13.489Z,7.47
2019-02-26T08:30:44.254Z,7.37
2019-02-26T08:33:09.014Z,6.43
2019-02-26T08:35:35.732Z,4.50
2019-02-26T08:38:05.650Z,3.93
2019-02-26T08:40:30.950Z,4.13
2019-02-26T08:42:57.698Z,5.20
2019-02-26T08:45:25.823Z,8.77
2019-02-26T08:47:52.616Z,5.83
2019-02-26T08:50:19.248Z,5.83
2019-02-26T08:52:47.739Z,5.97
2019-02-26T08:55:16.162Z,5.73
2019-02-26T08:57:43.094Z,4.57
2019-02-26T09:00:14.900Z,4.40
2019-02-26T09:02:43.552Z,7.00
2019-02-26T09:05:11.954Z,6.03
2019-02-26T09:07:40.415Z,5.00
2019-02-26T09:10:09.833Z,6.07
2019-02-26T09:12:36.398Z,4.50
2019-02-26T09:15:04.304Z,6.23
2019-02-26T09:17:32.504Z,4.30
2019-02-26T09:20:06.968Z,7.20
2019-02-26T09:22:28.453Z,5.77
2019-02-26T09:24:56.845Z,5.80
2019-02-26T09:27:24.819Z,8.17
2019-02-26T09:29:52.420Z,4.70
2019-02-26T09:32:19.213Z,4.77
2019-02-26T09:34:45.762Z,3.90
2019-02-26T09:37:12.475Z,5.20
2019-02-26T09:39:39.206Z,3.23
2019-02-26T09:42:06.482Z,4.33
2019-02-26T09:44:35.907Z,4.97
2019-02-26T09:47:04.966Z,6.40
2019-02-26T09:49:33.265Z,4.83
2019-02-26T09:52:01.447Z,5.00
2019-02-26T09:54:28.212Z,5.80
2019-02-26T09:56:54.858Z,3.93
2019-02-26T09:59:21.398Z,5.07
2019-02-26T10:01:47.972Z,5.33
2019-02-26T10:04:14.522Z,3.90
2019-02-26T10:06:42.569Z,6.63
2019-02-26T10:09:12.787Z,5.13
2019-02-26T10:11:39.411Z,5.53
2019-02-26T10:14:07.945Z,4.90
2019-02-26T10:16:35.362Z,6.43
2019-02-26T10:19:02.100Z,6.53
2019-02-26T10:21:28.911Z,9.50
2019-02-26T10:23:56.807Z,6.97
2019-02-26T10:26:26.130Z,6.13
2019-02-26T10:28:57.794Z,7.97
2019-02-26T10:31:25.042Z,3.43
2019-02-26T10:33:50.844Z,5.30
2019-02-26T10:36:18.401Z,4.23
2019-02-26T10:38:45.244Z,4.00
2019-02-26T10:41:12.043Z,4.77
2019-02-26T10:43:40.032Z,5.03
2019-02-26T10:46:06.768Z,5.43
2019-02-26T10:48:33.512Z,5.37
2019-02-26T10:51:00.600Z,2.47
2019-02-26T10:53:27.606Z,4.87
2019-02-26T10:55:54.554Z,3.53
2019-02-26T10:58:21.368Z,5.80
2019-02-26T11:00:53.177Z,4.50
2019-02-26T11:03:20.293Z,4.13
2019-02-26T11:05:48.785Z,4.23
2019-02-26T11:08:15.702Z,4.73
2019-02-26T11:10:44.495Z,4.27
2019-02-26T11:13:13.025Z,4.80
2019-02-26T11:15:39.610Z,5.57
2019-02-26T11:18:08.086Z,4.93
2019-02-26T11:20:35.007Z,3.50
2019-02-26T11:23:03.532Z,6.10
2019-02-26T11:25:30.262Z,7.50
2019-02-26T11:27:56.913Z,4.83
2019-02-26T11:30:28.593Z,5.17
2019-02-26T11:32:56.133Z,4.23
2019-02-26T11:35:22.590Z,4.23
2019-02-26T11:37:52.220Z,4.53
2019-02-26T11:40:20.296Z,4.13
2019-02-26T11:42:49.352Z,4.53
2019-02-26T11:45:19.116Z,3.77
2019-02-26T11:47:45.017Z,6.13
2019-02-26T11:50:13.067Z,6.77
2019-02-26T11:52:39.899Z,3.77
2019-02-26T11:55:09.432Z,5.60
2019-02-26T11:57:37.686Z,4.23
2019-02-26T12:00:09.224Z,3.23
2019-02-26T12:02:37.053Z,4.30
2019-02-26T12:05:05.600Z,4.30
2019-02-26T12:07:34.857Z,2.90
2019-02-26T12:10:08.734Z,2.87
2019-02-26T12:12:31.129Z,4.50
2019-02-26T12:15:01.067Z,2.75
2019-02-26T12:17:27.656Z,2.57
2019-02-26T12:19:55.768Z,3.90
2019-02-26T12:22:25.212Z,2.73
2019-02-26T12:24:55.782Z,4.20
2019-02-26T12:27:20.798Z,3.93
2019-02-26T12:29:51.613Z,4.03
2019-02-26T12:32:19.449Z,3.73
2019-02-26T12:34:48.436Z,2.10
2019-02-26T12:37:14.074Z,3.43
2019-02-26T12:39:43.499Z,3.03
2019-02-26T12:42:10.646Z,4.70
2019-02-26T12:44:39.569Z,3.37
2019-02-26T12:47:06.274Z,3.03
2019-02-26T12:49:35.613Z,3.60
2019-02-26T12:52:03.274Z,2.43
2019-02-26T12:54:33.209Z,2.10
2019-02-26T12:57:00.652Z,1.80
2019-02-26T12:59:27.326Z,1.97
2019-02-26T13:01:54.232Z,1.80
2019-02-26T13:04:24.855Z,2.53
2019-02-26T13:06:51.981Z,1.90
2019-02-26T13:09:18.096Z,4.50
2019-02-26T13:12:00.651Z,2.37
2019-02-26T13:14:13.615Z,2.67
2019-02-26T13:16:42.031Z,2.53
2019-02-26T13:19:08.882Z,2.27
2019-02-26T13:21:35.592Z,2.07
2019-02-26T13:24:11.470Z,1.67
2019-02-26T13:26:36.100Z,2.50
2019-02-26T13:29:00.491Z,3.60
2019-02-26T13:31:27.438Z,2.30
2019-02-26T13:33:54.109Z,2.20
2019-02-26T13:36:20.783Z,2.87
2019-02-26T13:38:49.174Z,2.73
2019-02-26T13:41:38.332Z,3.17
2019-02-26T13:43:44.566Z,2.83
2019-02-26T13:46:11.500Z,3.77
2019-02-26T13:48:38.145Z,1.47
2019-02-26T13:51:04.941Z,4.17
2019-02-26T13:53:31.473Z,2.30
2019-02-26T13:55:58.184Z,2.43
2019-02-26T13:58:24.812Z,3.23
2019-02-26T14:00:51.605Z,6.30
2019-02-26T14:03:19.425Z,2.70
2019-02-26T14:05:45.982Z,3.37
2019-02-26T14:08:13.159Z,3.57
2019-02-26T14:10:39.814Z,2.30
2019-02-26T14:13:06.496Z,2.93
2019-02-26T14:15:33.561Z,4.10
2019-02-26T14:18:00.413Z,1.97
2019-02-26T14:20:27.272Z,4.10
2019-02-26T14:22:55.596Z,3.03
2019-02-26T14:25:22.147Z,2.47
2019-02-26T14:27:48.898Z,1.53
2019-02-26T14:30:15.784Z,1.90
2019-02-26T14:32:42.539Z,2.83
2019-02-26T14:35:09.866Z,4.10
2019-02-26T14:37:36.711Z,1.83
2019-02-26T14:40:04.284Z,3.37
2019-02-26T14:42:31.456Z,2.67
2019-02-26T14:44:58.188Z,2.80
2019-02-26T14:47:24.742Z,1.90
2019-02-26T14:49:51.404Z,4.03
2019-02-26T14:52:18.073Z,4.63
2019-02-26T14:54:44.751Z,1.77
2019-02-26T14:57:11.729Z,2.13
2019-02-26T14:59:38.387Z,2.13
2019-02-26T15:02:05.691Z,2.07
2019-02-26T15:04:32.422Z,6.00
2019-02-26T15:06:58.956Z,1.60
2019-02-26T15:09:25.560Z,1.70
2019-02-26T15:11:52.232Z,1.17
2019-02-26T15:14:19.107Z,1.53
2019-02-26T15:16:45.833Z,3.23
2019-02-26T15:19:12.627Z,3.73
2019-02-26T15:21:39.283Z,2.17
2019-02-26T15:24:06.159Z,1.10
2019-02-26T15:26:32.710Z,1.07
2019-02-26T15:28:59.496Z,1.23
2019-02-26T15:31:26.086Z,3.77
2019-02-26T15:33:52.744Z,2.90
2019-02-26T15:36:19.394Z,2.63
2019-02-26T15:38:46.336Z,1.57
2019-02-26T15:41:13.176Z,2.93
2019-02-26T15:43:40.889Z,3.77
2019-02-26T15:46:07.600Z,1.00
2019-02-26T15:48:36.329Z,1.77
2019-02-26T15:51:03.960Z,1.20
2019-02-26T15:53:30.716Z,1.10
2019-02-26T15:55:59.481Z,1.93
2019-02-26T15:58:25.994Z,2.03
2019-02-26T16:00:52.635Z,5.00
2019-02-26T16:03:20.351Z,1.43
2019-02-26T16:05:47.204Z,4.10
2019-02-26T16:08:13.851Z,5.43
2019-02-26T16:10:40.546Z,2.90
2019-02-26T16:13:07.319Z,1.93
2019-02-26T16:15:34.201Z,3.83
2019-02-26T16:18:00.886Z,2.27
2019-02-26T16:20:27.925Z,3.43
2019-02-26T16:22:54.626Z,2.77
2019-02-26T16:25:21.285Z,2.20
2019-02-26T16:27:47.865Z,4.03
2019-02-26T16:30:18.717Z,2.20
2019-02-26T16:32:45.351Z,1.17
2019-02-26T16:35:12.129Z,3.90
2019-02-26T16:37:41.506Z,2.80
2019-02-26T16:40:07.859Z,6.60
2019-02-26T16:42:34.508Z,2.00
2019-02-26T16:45:01.693Z,1.77
2019-02-26T16:47:28.580Z,4.87
2019-02-26T16:49:55.287Z,4.03
2019-02-26T16:52:22.122Z,3.60
2019-02-26T16:54:48.733Z,7.00
2019-02-26T16:57:15.563Z,4.90
2019-02-26T16:59:42.377Z,6.83
2019-02-26T17:02:09.148Z,4.83
2019-02-26T17:04:35.754Z,6.23
2019-02-26T17:07:02.731Z,4.53
2019-02-26T17:09:29.463Z,6.73
2019-02-26T17:11:56.138Z,9.50
2019-02-26T17:14:22.840Z,4.47
2019-02-26T17:16:49.429Z,6.97
2019-02-26T17:19:16.135Z,11.60
2019-02-26T17:21:42.899Z,4.93
2019-02-26T17:24:09.694Z,10.00
2019-02-26T17:26:36.386Z,5.00
2019-02-26T17:29:03.283Z,10.27
2019-02-26T17:31:30.750Z,4.40
2019-02-26T17:33:57.920Z,3.97
2019-02-26T17:36:24.675Z,3.80
2019-02-26T17:38:52.169Z,3.90
2019-02-26T17:41:18.953Z,6.37
2019-02-26T17:43:45.489Z,7.43
2019-02-26T17:46:12.189Z,4.80
2019-02-26T17:48:43.476Z,4.93
2019-02-26T17:51:08.162Z,7.40
2019-02-26T17:53:34.795Z,5.40
2019-02-26T17:56:01.408Z,5.30
2019-02-26T17:58:28.299Z,6.90
2019-02-26T18:00:55.744Z,8.90
2019-02-26T18:03:22.598Z,5.83
2019-02-26T18:05:51.472Z,11.80
2019-02-26T18:08:19.103Z,10.77
2019-02-26T18:10:46.329Z,9.97
2019-02-26T18:13:13.112Z,7.37
2019-02-26T18:15:39.817Z,8.20
2019-02-26T18:18:06.569Z,6.90
2019-02-26T18:20:33.317Z,8.57
2019-02-26T18:23:00.784Z,5.10
2019-02-26T18:25:27.510Z,7.27
2019-02-26T18:27:54.182Z,7.70
2019-02-26T18:30:21.250Z,7.83
2019-02-26T18:32:50.527Z,4.83
2019-02-26T18:35:16.759Z,8.93
2019-02-26T18:37:46.299Z,6.73
2019-02-26T18:40:12.119Z,12.13
2019-02-26T18:42:41.359Z,7.23
2019-02-26T18:45:10.941Z,7.00
2019-02-26T18:47:37.629Z,9.73
2019-02-26T18:50:04.635Z,9.03
2019-02-26T18:52:31.412Z,9.67
2019-02-26T18:54:58.341Z,7.93
2019-02-26T18:57:25.135Z,9.87
2019-02-26T18:59:53.692Z,12.50
2019-02-26T19:02:20.504Z,7.23
2019-02-26T19:04:49.261Z,11.40
2019-02-26T19:07:15.970Z,7.53
2019-02-26T19:09:45.100Z,12.00
2019-02-26T19:12:11.496Z,7.17
2019-02-26T19:14:41.887Z,13.03
2019-02-26T19:17:06.912Z,8.70
2019-02-26T19:19:33.756Z,11.77
2019-02-26T19:22:00.489Z,13.87
2019-02-26T19:24:27.439Z,11.13
2019-02-26T19:26:54.193Z,13.17
2019-02-26T19:29:20.898Z,11.63
2019-02-26T19:31:50.178Z,18.33
2019-02-26T19:34:17.051Z,13.77
2019-02-26T19:36:45.896Z,6.77
2019-02-26T19:39:12.689Z,10.93
2019-02-26T19:41:39.410Z,9.53
2019-02-26T19:44:06.183Z,7.53
2019-02-26T19:46:32.948Z,4.70
2019-02-26T19:48:59.693Z,10.50
2019-02-26T19:51:26.376Z,7.07
2019-02-26T19:53:53.155Z,6.00
2019-02-26T19:56:23.195Z,8.27
2019-02-26T20:01:10.685Z,4.70
2019-02-26T20:03:40.169Z,5.93
2019-02-26T20:06:05.806Z,4.57
2019-02-26T20:08:32.489Z,6.10
2019-02-26T20:10:59.187Z,6.33
2019-02-26T20:13:26.010Z,6.03
2019-02-26T20:15:54.826Z,6.13
2019-02-26T20:18:25.783Z,6.20
2019-02-26T20:20:49.742Z,5.30
2019-02-26T20:23:16.655Z,5.93
2019-02-26T20:25:44.115Z,4.30
2019-02-26T20:28:11.873Z,6.17
2019-02-26T20:30:38.704Z,5.60
2019-02-26T20:33:05.343Z,10.00
2019-02-26T20:35:32.000Z,5.93
2019-02-26T20:37:59.359Z,4.93
2019-02-26T20:40:26.080Z,6.27
2019-02-26T20:42:52.985Z,5.97
2019-02-26T20:45:22.469Z,4.27
2019-02-26T20:47:49.168Z,3.50
2019-02-26T20:50:20.123Z,5.27
2019-02-26T20:52:44.837Z,4.40
2019-02-26T20:55:13.643Z,5.40
2019-02-26T20:57:41.747Z,5.63
2019-02-26T21:00:12.377Z,4.87
2019-02-26T21:02:40.276Z,6.23
2019-02-26T21:05:07.194Z,6.83
2019-02-26T21:07:33.966Z,6.07
2019-02-26T21:10:03.875Z,6.07
2019-02-26T21:12:29.628Z,3.43
2019-02-26T21:14:58.645Z,6.30
2019-02-26T21:17:26.244Z,7.17
2019-02-26T21:19:53.035Z,5.43
2019-02-26T21:22:22.101Z,5.83
2019-02-26T21:24:49.053Z,4.53
2019-02-26T21:27:15.876Z,6.67
2019-02-26T21:29:42.643Z,5.53
2019-02-26T21:32:09.572Z,7.70
2019-02-26T21:34:36.488Z,8.37
2019-02-26T21:37:03.392Z,5.10
2019-02-26T21:39:30.340Z,6.53
2019-02-26T21:41:57.164Z,6.50
2019-02-26T21:44:24.895Z,9.27
2019-02-26T21:46:55.812Z,6.70
2019-02-26T21:49:21.797Z,7.83
2019-02-26T21:51:48.539Z,9.37
2019-02-26T21:54:15.336Z,5.13
2019-02-26T21:56:42.061Z,4.73
2019-02-26T21:59:09.865Z,5.07
2019-02-26T22:01:36.642Z,5.93
2019-02-26T22:04:05.326Z,4.93
2019-02-26T22:06:32.058Z,5.93
2019-02-26T22:08:58.919Z,3.97
2019-02-26T22:11:25.717Z,5.27
2019-02-26T22:13:52.461Z,6.90
2019-02-26T22:16:19.209Z,5.43
2019-02-26T22:18:46.990Z,4.80
2019-02-26T22:21:13.770Z,5.83
2019-02-26T22:23:41.625Z,5.70
2019-02-26T22:26:08.351Z,6.90
2019-02-26T22:28:35.220Z,4.83
2019-02-26T22:31:01.928Z,6.67
2019-02-26T22:33:48.202Z,10.33
2019-02-26T22:36:15.022Z,15.20
2019-02-26T22:38:41.718Z,16.10
2019-02-26T22:41:08.450Z,14.97
2019-02-26T22:43:35.312Z,16.90
2019-02-26T22:46:02.186Z,13.57
2019-02-26T22:48:28.884Z,13.03
2019-02-26T22:50:59.564Z,10.07
2019-02-26T22:53:24.193Z,13.47
2019-02-26T22:55:50.893Z,13.57
2019-02-26T22:58:17.656Z,9.73
2019-02-26T23:01:11.755Z,9.13
2019-02-26T23:03:39.086Z,12.50
2019-02-26T23:06:07.197Z,14.53
2019-02-26T23:08:33.939Z,13.13
2019-02-26T23:11:00.601Z,15.57
2019-02-26T23:13:31.545Z,16.20
2019-02-26T23:15:56.533Z,11.23
2019-02-26T23:18:23.360Z,9.20
2019-02-26T23:20:50.027Z,11.40
2019-02-26T23:23:16.714Z,11.90
2019-02-26T23:25:43.406Z,8.70
2019-02-26T23:28:10.098Z,12.37
2019-02-26T23:30:36.796Z,6.33
2019-02-26T23:33:05.755Z,8.03
2019-02-26T23:35:32.358Z,7.73
2019-02-26T23:37:58.995Z,6.60
2019-02-26T23:40:27.416Z,7.00
2019-02-26T23:42:54.255Z,6.43
2019-02-26T23:45:23.941Z,6.17
2019-02-26T23:47:49.335Z,7.10
2019-02-26T23:50:16.555Z,4.60
2019-02-26T23:52:43.279Z,5.33
2019-02-26T23:55:13.093Z,3.47
2019-02-26T23:57:38.608Z,6.70
